Time;durP1;ratioP1;P1;durP2;ratioP2;P2;SDS_P1;SDS_P2;PMS_P1;PMS_P2;Temp;Humidity;BMP_temperature;BMP_pressure;BME280_temperature;BME280_humidity;BME280_pressure;Samples;Min_cycle;Max_cycle;Signal;HPM_P1;HPM_P2
2023/10/13 00:01:11;;;;;;;24.17;12.68;;;15.20;99.90;;;;;;4933503;28;20046;-81
2023/10/13 00:03:40;;;;;;;26.05;13.35;;;15.20;99.90;;;;;;4949825;28;20086;-81
2023/10/13 00:06:08;;;;;;;23.85;12.40;;;15.20;99.90;;;;;;4949083;28;20054;-81
2023/10/13 00:08:36;;;;;;;27.70;12.38;;;15.10;99.90;;;;;;4952060;28;20042;-80
2023/10/13 00:11:04;;;;;;;25.05;13.18;;;15.10;99.90;;;;;;4963123;28;20145;-82
2023/10/13 00:16:28;;;;;;;24.20;12.55;;;15.10;99.90;;;;;;4937959;28;20054;-81
2023/10/13 00:18:57;;;;;;;21.83;12.70;;;15.10;99.90;;;;;;4967775;28;20435;-81
2023/10/13 00:21:35;;;;;;;22.63;12.82;;;15.10;99.90;;;;;;4960042;28;20061;-81
2023/10/13 00:24:11;;;;;;;24.40;11.90;;;15.00;99.90;;;;;;4952004;28;20050;-81
2023/10/13 00:26:42;;;;;;;26.48;13.15;;;15.00;99.90;;;;;;4956645;28;20054;-81
2023/10/13 00:31:42;;;;;;;26.42;13.82;;;14.90;99.90;;;;;;4968473;28;20047;-81
2023/10/13 00:39:36;;;;;;;25.38;12.27;;;14.80;99.90;;;;;;4952433;28;20062;-82
2023/10/13 00:42:08;;;;;;;32.85;13.07;;;14.80;99.90;;;;;;4940311;28;22524;-81
2023/10/13 00:44:41;;;;;;;22.08;12.65;;;14.80;99.90;;;;;;4951616;28;20198;-81
2023/10/13 00:47:12;;;;;;;23.95;12.50;;;14.80;99.90;;;;;;4953847;28;20052;-82
2023/10/13 00:49:39;;;;;;;20.92;11.63;;;14.80;99.90;;;;;;4946262;28;20054;-81
2023/10/13 00:52:10;;;;;;;22.25;11.55;;;14.80;99.90;;;;;;4937627;28;23053;-81
2023/10/13 00:54:38;;;;;;;22.77;11.50;;;14.70;99.90;;;;;;4954158;28;20047;-82
2023/10/13 00:57:12;;;;;;;27.83;13.57;;;14.80;99.90;;;;;;4969786;28;20054;-81
2023/10/13 00:59:42;;;;;;;23.30;11.63;;;14.80;99.90;;;;;;4954881;28;20054;-81
2023/10/13 01:04:55;;;;;;;23.13;11.90;;;14.70;99.90;;;;;;4975586;28;20177;-80
2023/10/13 01:07:24;;;;;;;25.45;12.65;;;14.70;99.90;;;;;;4944770;28;20038;-81
2023/10/13 01:09:52;;;;;;;21.48;11.98;;;14.70;99.90;;;;;;4952427;28;20046;-81
2023/10/13 01:12:19;;;;;;;20.63;12.60;;;14.70;99.90;;;;;;4952047;28;20628;-81
2023/10/13 01:14:47;;;;;;;20.25;11.80;;;14.70;99.90;;;;;;4953721;28;20050;-79
2023/10/13 01:17:14;;;;;;;26.73;13.48;;;14.70;99.90;;;;;;4938560;28;20062;-82
2023/10/13 01:19:45;;;;;;;17.73;11.60;;;14.60;99.90;;;;;;4972644;28;20058;-81
2023/10/13 01:22:13;;;;;;;24.15;11.38;;;14.60;99.90;;;;;;4940750;28;20058;-82
2023/10/13 01:24:41;;;;;;;22.75;11.77;;;14.70;99.90;;;;;;4948749;28;20077;-81
2023/10/13 01:27:20;;;;;;;20.52;11.15;;;14.70;99.90;;;;;;4933581;28;20050;-82
2023/10/13 01:29:48;;;;;;;20.27;11.82;;;14.70;99.90;;;;;;4945146;28;20055;-82
2023/10/13 01:32:21;;;;;;;24.48;12.38;;;14.60;99.90;;;;;;4964658;28;20718;-81
2023/10/13 01:34:49;;;;;;;19.95;11.43;;;14.60;99.90;;;;;;4974439;28;20054;-82
2023/10/13 01:37:19;;;;;;;24.67;12.13;;;14.70;99.90;;;;;;4968648;28;20122;-80
2023/10/13 01:39:47;;;;;;;26.63;12.43;;;14.60;99.90;;;;;;4957018;28;20042;-81
2023/10/13 01:42:25;;;;;;;23.45;11.35;;;14.60;99.90;;;;;;4950081;28;20599;-82
2023/10/13 01:44:57;;;;;;;22.08;12.13;;;14.60;99.90;;;;;;4943541;28;20050;-81
2023/10/13 01:47:27;;;;;;;23.23;12.38;;;14.60;99.90;;;;;;4952248;28;20050;-81
2023/10/13 01:49:58;;;;;;;22.65;13.85;;;14.60;99.90;;;;;;4961171;28;20511;-83
2023/10/13 01:52:27;;;;;;;25.58;14.27;;;14.50;99.90;;;;;;4944007;28;20057;-81
2023/10/13 01:54:55;;;;;;;21.75;13.02;;;14.60;99.90;;;;;;4940950;28;20066;-82
2023/10/13 01:57:24;;;;;;;24.95;14.15;;;14.60;99.90;;;;;;4952141;28;20428;-81
2023/10/13 01:59:51;;;;;;;23.50;13.30;;;14.60;99.90;;;;;;4955169;28;20046;-81
2023/10/13 02:02:20;;;;;;;25.60;13.68;;;14.60;99.90;;;;;;4980055;28;20061;-82
2023/10/13 02:04:56;;;;;;;20.60;12.52;;;14.50;99.90;;;;;;4938323;28;20064;-82
2023/10/13 02:07:29;;;;;;;27.23;13.65;;;14.60;99.90;;;;;;4963413;28;20055;-81
2023/10/13 02:09:58;;;;;;;21.92;13.93;;;14.60;99.90;;;;;;4941220;28;20054;-82
2023/10/13 02:12:36;;;;;;;22.35;13.00;;;14.60;99.90;;;;;;4938751;28;20062;-81
2023/10/13 02:15:04;;;;;;;26.05;14.45;;;14.60;99.90;;;;;;4955422;28;21097;-82
2023/10/13 02:17:41;;;;;;;25.17;14.05;;;14.60;99.90;;;;;;4937482;28;22556;-82
2023/10/13 02:20:15;;;;;;;24.20;13.45;;;14.60;99.90;;;;;;4989283;28;20047;-81
2023/10/13 02:22:51;;;;;;;25.20;14.90;;;14.60;99.90;;;;;;4961361;28;21059;-82
2023/10/13 02:26:00;;;;;;;23.08;14.85;;;14.60;99.90;;;;;;4970266;28;20050;-81
2023/10/13 02:28:13;;;;;;;25.55;14.55;;;14.60;99.90;;;;;;4963192;28;20061;-81
2023/10/13 02:30:44;;;;;;;26.50;14.18;;;14.60;99.90;;;;;;4969114;28;20042;-82
2023/10/13 02:33:13;;;;;;;29.95;15.32;;;14.60;99.90;;;;;;4968976;28;20132;-82
2023/10/13 02:35:41;;;;;;;25.70;14.73;;;14.60;99.90;;;;;;4955769;28;20050;-81
2023/10/13 02:38:11;;;;;;;24.90;15.57;;;14.60;99.90;;;;;;4951760;28;20408;-82
2023/10/13 02:40:39;;;;;;;24.65;14.40;;;14.60;99.90;;;;;;4952923;28;20058;-82
2023/10/13 02:43:06;;;;;;;25.30;14.70;;;14.60;99.90;;;;;;4966410;28;20077;-80
2023/10/13 02:45:36;;;;;;;27.42;14.45;;;14.60;99.90;;;;;;4957705;28;20177;-82
2023/10/13 02:48:12;;;;;;;29.67;15.23;;;14.60;99.90;;;;;;4948694;28;20180;-82
2023/10/13 02:50:47;;;;;;;22.23;13.57;;;14.60;99.90;;;;;;4946114;28;20059;-82
2023/10/13 02:53:18;;;;;;;29.05;15.00;;;14.60;99.90;;;;;;4955350;28;20066;-82
2023/10/13 02:55:53;;;;;;;24.92;14.50;;;14.60;99.90;;;;;;4954828;28;20450;-80
2023/10/13 02:58:20;;;;;;;26.27;15.80;;;14.60;99.90;;;;;;4946935;28;20148;-83
2023/10/13 03:00:49;;;;;;;29.05;16.45;;;14.60;99.90;;;;;;4960847;28;20057;-83
2023/10/13 03:03:18;;;;;;;23.60;15.57;;;14.60;99.90;;;;;;4955420;28;20038;-82
2023/10/13 03:05:46;;;;;;;28.13;15.50;;;14.50;99.90;;;;;;4959570;28;20065;-82
2023/10/13 03:08:18;;;;;;;28.85;18.35;;;14.50;99.90;;;;;;4933190;28;20065;-82
2023/10/13 03:10:49;;;;;;;25.38;16.02;;;14.50;99.90;;;;;;4953222;28;20050;-82
2023/10/13 03:13:16;;;;;;;28.45;15.95;;;14.50;99.90;;;;;;4960603;28;20042;-82
2023/10/13 03:15:47;;;;;;;28.15;16.70;;;14.50;99.90;;;;;;4956561;28;20810;-82
2023/10/13 03:18:18;;;;;;;24.63;16.05;;;14.50;99.90;;;;;;4952278;28;20117;-82
2023/10/13 03:20:50;;;;;;;30.20;15.63;;;14.50;99.90;;;;;;4960415;28;20062;-82
2023/10/13 03:23:17;;;;;;;24.97;16.33;;;14.60;99.90;;;;;;4929425;28;20058;-82
2023/10/13 03:25:49;;;;;;;27.55;15.75;;;14.60;99.90;;;;;;4941328;28;20039;-81
2023/10/13 03:28:23;;;;;;;24.88;14.73;;;14.60;99.90;;;;;;4968187;28;20141;-82
2023/10/13 03:30:53;;;;;;;24.95;15.38;;;14.60;99.90;;;;;;4948040;28;20125;-82
2023/10/13 03:33:32;;;;;;;25.05;14.48;;;14.60;99.90;;;;;;4937472;28;20046;-82
2023/10/13 03:36:05;;;;;;;26.45;14.60;;;14.60;99.90;;;;;;4947615;28;20054;-81
2023/10/13 03:38:36;;;;;;;24.77;14.63;;;14.60;99.90;;;;;;4936929;28;20058;-82
2023/10/13 03:41:20;;;;;;;29.33;15.32;;;14.60;99.90;;;;;;4953519;28;20042;-81
2023/10/13 03:43:52;;;;;;;25.95;15.23;;;14.60;99.90;;;;;;4952602;28;20046;-82
2023/10/13 03:46:22;;;;;;;28.17;16.00;;;14.60;99.90;;;;;;4940148;28;22230;-81
2023/10/13 03:48:54;;;;;;;27.92;15.65;;;14.60;99.90;;;;;;4961711;28;20138;-82
2023/10/13 03:51:22;;;;;;;;;;;14.70;99.90;;;;;;4966355;28;20046;-81
2023/10/13 03:53:55;;;;;;;25.05;14.27;;;14.60;99.90;;;;;;4939348;28;19930;-81
2023/10/13 03:56:27;;;;;;;24.15;14.95;;;14.60;99.90;;;;;;4933861;28;20415;-82
2023/10/13 03:59:01;;;;;;;25.55;15.80;;;14.60;99.90;;;;;;4938559;28;20130;-82
2023/10/13 04:01:31;;;;;;;25.05;14.68;;;14.60;99.90;;;;;;4942593;28;20063;-82
2023/10/13 04:04:10;;;;;;;26.98;14.43;;;14.60;99.90;;;;;;4953168;28;20050;-83
2023/10/13 04:17:33;;;;;;;24.33;13.70;;;14.70;99.90;;;;;;4969254;28;20457;-82
2023/10/13 04:41:42;;;;;;;29.73;14.75;;;14.80;99.90;;;;;;4945906;28;20077;-82
2023/10/13 04:49:35;;;;;;;28.65;15.45;;;14.80;99.90;;;;;;4966187;28;20108;-80
2023/10/13 05:44:55;;;;;;;31.20;16.02;;;14.90;99.90;;;;;;4968786;28;20046;-85
2023/10/13 05:47:00;;;;;;;28.52;15.75;;;14.90;99.90;;;;;;4938879;28;20101;-93
2023/10/13 05:49:49;;;;;;;25.90;15.98;;;14.90;99.90;;;;;;4974504;28;20633;-84
2023/10/13 06:28:40;;;;;;;32.47;17.25;;;14.90;99.90;;;;;;4949752;28;20058;-84
2023/10/13 06:31:25;;;;;;;31.27;17.48;;;15.20;99.90;;;;;;4953660;28;20058;-82
2023/10/13 06:33:55;;;;;;;32.60;17.17;;;15.20;99.90;;;;;;4949865;28;20060;-82
2023/10/13 06:36:23;;;;;;;31.25;16.80;;;15.20;99.90;;;;;;4976648;28;20974;-83
2023/10/13 06:39:25;;;;;;;32.20;17.17;;;15.20;99.90;;;;;;4946953;28;20085;-83
2023/10/13 06:41:40;;;;;;;32.40;17.35;;;15.20;99.90;;;;;;4955193;28;20104;-82
2023/10/13 06:44:14;;;;;;;38.85;18.58;;;15.30;99.90;;;;;;4974913;28;20073;-83
2023/10/13 06:46:43;;;;;;;36.15;18.27;;;15.30;99.90;;;;;;4946382;28;20055;-82
2023/10/13 06:49:13;;;;;;;30.50;17.80;;;15.30;99.90;;;;;;4957570;28;20141;-83
2023/10/13 06:51:40;;;;;;;31.50;16.75;;;15.30;99.90;;;;;;4955621;28;20054;-82
2023/10/13 06:54:11;;;;;;;31.98;17.10;;;15.30;99.90;;;;;;4963133;28;20082;-83
2023/10/13 06:56:41;;;;;;;30.10;17.40;;;15.30;99.90;;;;;;4962669;28;20054;-83
2023/10/13 06:59:08;;;;;;;31.50;16.83;;;15.30;99.90;;;;;;4957907;28;20514;-82
2023/10/13 07:01:39;;;;;;;32.50;17.63;;;15.30;99.90;;;;;;4957205;28;20534;-81
2023/10/13 07:04:14;;;;;;;32.95;18.85;;;15.30;99.90;;;;;;4958694;28;20185;-82
2023/10/13 07:06:47;;;;;;;32.60;17.17;;;15.30;99.90;;;;;;4952181;28;20057;-82
2023/10/13 07:12:16;;;;;;;30.58;17.25;;;15.30;99.90;;;;;;4947035;28;20054;-82
2023/10/13 07:17:38;;;;;;;40.63;20.33;;;15.40;99.90;;;;;;4960023;28;20046;-82
2023/10/13 07:20:23;;;;;;;36.28;19.88;;;15.40;99.90;;;;;;4942146;28;20276;-82
2023/10/13 07:23:03;;;;;;;34.40;20.05;;;15.40;99.90;;;;;;4975220;28;20065;-82
2023/10/13 07:25:33;;;;;;;33.55;17.80;;;15.40;99.90;;;;;;4959926;28;20046;-82
2023/10/13 07:28:00;;;;;;;41.38;20.90;;;15.40;99.90;;;;;;4969878;28;20058;-82
2023/10/13 07:30:30;;;;;;;35.95;18.60;;;15.40;99.90;;;;;;4971728;28;20557;-83
2023/10/13 07:32:59;;;;;;;36.10;17.65;;;15.50;99.90;;;;;;4946804;28;20510;-81
2023/10/13 07:35:30;;;;;;;36.97;19.38;;;15.50;99.90;;;;;;4963833;28;20046;-83
2023/10/13 07:37:59;;;;;;;27.85;16.13;;;15.50;99.90;;;;;;4947426;28;20112;-83
2023/10/13 07:43:09;;;;;;;36.05;18.13;;;15.50;99.90;;;;;;4960025;28;20048;-82
2023/10/13 07:45:37;;;;;;;34.90;18.02;;;15.50;99.90;;;;;;4958579;28;20050;-82
2023/10/13 07:48:23;;;;;;;30.10;17.65;;;15.50;99.90;;;;;;4966917;28;20050;-82
2023/10/13 07:51:01;;;;;;;33.33;16.63;;;15.60;99.90;;;;;;4940390;28;20054;-82
2023/10/13 07:53:34;;;;;;;29.15;16.88;;;15.60;99.90;;;;;;4947455;28;20050;-82
2023/10/13 07:56:04;;;;;;;25.58;15.77;;;15.70;99.90;;;;;;4961401;28;20050;-83
2023/10/13 07:58:32;;;;;;;32.38;18.52;;;15.80;99.90;;;;;;4963278;28;20057;-82
2023/10/13 08:01:06;;;;;;;35.22;17.48;;;15.80;99.90;;;;;;4969052;28;20043;-82
2023/10/13 08:03:43;;;;;;;36.83;18.77;;;15.90;99.90;;;;;;4966647;28;20060;-82
2023/10/13 08:08:53;;;;;;;23.25;14.07;;;16.00;99.90;;;;;;4951603;28;20058;-82
2023/10/13 08:13:59;;;;;;;41.38;18.77;;;16.00;99.90;;;;;;4955616;28;20191;-82
2023/10/13 08:16:54;;;;;;;31.58;17.27;;;16.00;99.90;;;;;;4963600;28;20668;-83
2023/10/13 08:27:48;;;;;;;37.97;20.50;;;16.10;99.90;;;;;;4971713;28;20605;-81
2023/10/13 08:30:31;;;;;;;35.58;19.33;;;16.20;99.90;;;;;;4952755;28;20050;-82
2023/10/13 08:32:59;;;;;;;33.72;20.38;;;16.30;99.90;;;;;;4955386;28;20127;-82
2023/10/13 08:38:04;;;;;;;33.80;18.55;;;16.40;99.90;;;;;;4967573;28;20081;-82
2023/10/13 08:43:43;;;;;;;35.03;19.05;;;16.60;99.90;;;;;;4954845;28;20543;-82
2023/10/13 08:46:25;;;;;;;38.15;18.77;;;16.60;99.90;;;;;;4960702;28;20050;-83
2023/10/13 08:49:04;;;;;;;37.33;18.30;;;16.70;99.90;;;;;;4942578;28;20062;-81
2023/10/13 08:51:44;;;;;;;33.83;18.58;;;16.70;99.90;;;;;;4962814;28;20450;-84
2023/10/13 08:54:33;;;;;;;36.45;18.48;;;16.80;99.90;;;;;;4959705;28;20116;-82
2023/10/13 08:57:37;;;;;;;34.83;17.65;;;16.70;99.90;;;;;;4953909;28;20065;-82
2023/10/13 08:59:55;;;;;;;34.33;17.92;;;16.80;99.90;;;;;;4953640;28;22468;-81
2023/10/13 09:08:07;;;;;;;35.00;16.80;;;17.00;99.90;;;;;;4959120;28;20054;-82
2023/10/13 09:10:44;;;;;;;32.95;19.05;;;17.10;99.90;;;;;;4939674;28;20046;-81
2023/10/13 09:13:20;;;;;;;32.72;19.05;;;17.10;99.90;;;;;;4947064;28;20101;-82
2023/10/13 09:16:00;;;;;;;41.38;18.08;;;17.10;99.90;;;;;;4937738;28;20145;-82
2023/10/13 09:18:47;;;;;;;34.78;18.80;;;17.20;99.90;;;;;;4980403;28;20051;-82
2023/10/13 09:21:29;;;;;;;33.40;18.15;;;17.20;99.90;;;;;;4940809;28;20758;-82
2023/10/13 09:24:16;;;;;;;28.23;14.52;;;17.40;99.90;;;;;;4957894;28;20076;-81
2023/10/13 09:26:47;;;;;;;32.33;17.92;;;17.40;99.90;;;;;;4988723;28;20094;-82
2023/10/13 09:29:18;;;;;;;34.63;16.83;;;17.40;99.90;;;;;;4948804;28;22546;-82
2023/10/13 09:31:48;;;;;;;35.67;16.52;;;17.50;99.90;;;;;;4963496;28;20073;-81
2023/10/13 09:34:29;;;;;;;35.45;16.98;;;17.60;99.90;;;;;;4937166;28;20085;-83
2023/10/13 09:37:03;;;;;;;34.78;18.00;;;17.70;99.90;;;;;;4941388;28;20062;-81
2023/10/13 09:42:12;;;;;;;37.53;16.65;;;17.90;99.90;;;;;;4963480;28;20055;-81
2023/10/13 09:44:49;;;;;;;29.35;16.10;;;18.00;99.90;;;;;;4960208;28;20051;-82
2023/10/13 09:47:24;;;;;;;31.98;16.27;;;18.00;99.90;;;;;;4972029;28;20058;-82
2023/10/13 09:49:57;;;;;;;28.55;14.70;;;18.10;99.90;;;;;;4958853;28;20215;-82
2023/10/13 09:52:25;;;;;;;31.55;16.25;;;18.20;99.90;;;;;;4959673;28;20054;-82
2023/10/13 09:55:19;;;;;;;30.33;16.10;;;18.40;99.90;;;;;;4943641;28;20047;-81
2023/10/13 09:58:10;;;;;;;26.58;14.70;;;18.40;99.90;;;;;;4943843;28;20196;-82
2023/10/13 10:00:46;;;;;;;33.13;14.98;;;18.60;99.90;;;;;;4949645;28;24081;-81
2023/10/13 10:06:03;;;;;;;31.30;14.32;;;18.80;99.90;;;;;;4954105;28;20185;-82
2023/10/13 10:08:36;;;;;;;30.23;15.02;;;18.90;99.90;;;;;;4957243;28;20051;-80
2023/10/13 10:11:12;;;;;;;28.98;13.85;;;19.00;99.90;;;;;;4938145;28;20058;-83
2023/10/13 10:13:57;;;;;;;30.85;14.43;;;19.10;99.90;;;;;;4959498;28;21038;-81
2023/10/13 10:17:00;;;;;;;28.70;14.20;;;19.20;99.90;;;;;;4943433;28;20867;-82
2023/10/13 10:19:35;;;;;;;26.13;10.65;;;19.20;99.90;;;;;;4957993;28;20058;-83
2023/10/13 10:22:10;;;;;;;27.20;12.65;;;19.30;99.90;;;;;;4946758;28;21235;-82
2023/10/13 10:24:41;;;;;;;26.48;11.88;;;19.50;99.90;;;;;;4961139;28;20054;-81
2023/10/13 10:27:14;;;;;;;34.17;13.15;;;19.50;99.90;;;;;;4954059;28;20043;-82
2023/10/13 10:29:54;;;;;;;23.23;12.48;;;19.50;99.90;;;;;;4966130;28;20050;-81
2023/10/13 10:32:21;;;;;;;27.65;12.30;;;19.60;99.90;;;;;;4960619;28;20054;-82
2023/10/13 10:34:48;;;;;;;20.50;11.30;;;19.70;99.90;;;;;;4965524;28;20192;-81
2023/10/13 10:37:16;;;;;;;28.95;11.85;;;19.80;99.90;;;;;;4976633;28;20168;-82
2023/10/13 10:39:49;;;;;;;22.75;10.93;;;19.90;99.90;;;;;;4959356;28;20200;-83
2023/10/13 10:42:23;;;;;;;19.55;11.15;;;19.90;99.90;;;;;;4972467;28;20089;-81
2023/10/13 10:44:55;;;;;;;24.25;11.23;;;20.00;99.90;;;;;;4961109;28;20080;-82
2023/10/13 10:47:31;;;;;;;21.27;11.57;;;20.20;99.90;;;;;;4957081;28;20753;-83
2023/10/13 10:50:06;;;;;;;22.10;11.20;;;20.30;99.90;;;;;;4964963;28;20185;-83
2023/10/13 10:52:39;;;;;;;25.42;11.20;;;20.50;99.90;;;;;;4960102;28;20135;-81
2023/10/13 10:55:19;;;;;;;21.38;10.90;;;20.70;99.90;;;;;;4951705;28;20058;-82
2023/10/13 10:57:48;;;;;;;20.40;9.82;;;20.80;99.90;;;;;;4964613;28;20046;-82
2023/10/13 11:00:20;;;;;;;23.77;11.02;;;21.10;99.90;;;;;;4960698;28;20688;-85
2023/10/13 11:02:57;;;;;;;20.25;10.23;;;21.20;99.90;;;;;;4989802;28;20053;-81
2023/10/13 11:05:32;;;;;;;23.63;10.82;;;21.10;99.90;;;;;;4964927;28;20180;-82
2023/10/13 11:08:00;;;;;;;20.27;8.77;;;21.10;99.90;;;;;;4981168;28;20059;-84
2023/10/13 11:10:31;;;;;;;23.60;9.55;;;21.20;99.90;;;;;;4957640;28;20061;-83
2023/10/13 11:13:13;;;;;;;21.50;9.73;;;21.30;99.90;;;;;;4943058;28;20089;-81
2023/10/13 11:15:46;;;;;;;20.88;10.82;;;21.40;99.90;;;;;;4957544;28;20050;-81
2023/10/13 11:18:21;;;;;;;24.02;10.02;;;21.30;99.90;;;;;;4953217;28;20046;-84
2023/10/13 11:20:54;;;;;;;21.83;9.52;;;21.40;99.90;;;;;;4977530;28;20078;-83
2023/10/13 11:23:25;;;;;;;23.52;9.73;;;21.70;99.90;;;;;;4966042;28;20087;-86
2023/10/13 11:26:00;;;;;;;17.52;8.35;;;21.80;99.90;;;;;;4971742;28;20081;-81
2023/10/13 11:28:27;;;;;;;16.10;6.85;;;22.00;99.90;;;;;;4951965;28;20047;-81
2023/10/13 11:30:59;;;;;;;17.27;6.88;;;22.10;99.90;;;;;;4949474;28;20054;-83
2023/10/13 11:33:28;;;;;;;14.98;6.10;;;22.20;99.90;;;;;;4955031;28;20124;-84
2023/10/13 11:35:57;;;;;;;14.23;6.60;;;22.10;99.90;;;;;;4954641;28;20792;-83
2023/10/13 11:38:34;;;;;;;15.48;7.28;;;22.10;99.90;;;;;;4963686;28;20140;-82
2023/10/13 11:46:15;;;;;;;17.30;7.43;;;22.10;99.90;;;;;;4978300;28;20058;-81
2023/10/13 11:48:54;;;;;;;15.68;7.25;;;22.10;99.90;;;;;;4961907;28;20058;-82
2023/10/13 11:51:24;;;;;;;19.48;7.72;;;22.10;99.90;;;;;;4940745;28;20054;-82
2023/10/13 11:53:51;;;;;;;13.65;6.90;;;22.10;99.90;;;;;;4959267;28;22297;-83
2023/10/13 11:56:23;;;;;;;14.95;7.43;;;22.20;99.90;;;;;;4972573;28;20098;-82
2023/10/13 11:58:51;;;;;;;16.00;7.00;;;22.30;99.90;;;;;;4963069;28;20144;-81
2023/10/13 12:06:47;;;;;;;18.90;7.82;;;22.40;99.90;;;;;;4978330;28;22673;-83
2023/10/13 12:11:54;;;;;;;16.08;6.10;;;22.40;99.90;;;;;;4981463;28;20050;-83
2023/10/13 12:14:27;;;;;;;17.85;7.07;;;22.50;99.90;;;;;;4968681;28;20054;-84
2023/10/13 12:16:55;;;;;;;16.02;5.78;;;22.50;99.90;;;;;;4948147;28;20401;-82
2023/10/13 12:19:24;;;;;;;15.65;5.18;;;22.50;98.90;;;;;;4968476;28;20701;-83
2023/10/13 12:21:55;;;;;;;13.95;5.78;;;22.60;98.00;;;;;;4958268;28;20096;-83
2023/10/13 12:27:20;;;;;;;15.45;5.72;;;22.50;98.80;;;;;;4981078;28;20053;-82
2023/10/13 12:29:48;;;;;;;16.55;5.78;;;22.60;97.90;;;;;;4961915;28;20120;-85
2023/10/13 12:32:22;;;;;;;13.75;6.22;;;22.60;97.70;;;;;;4987885;28;20046;-86
2023/10/13 12:48:58;;;;;;;14.35;5.43;;;22.70;95.90;;;;;;4973828;28;22012;-82
2023/10/13 12:54:16;;;;;;;14.00;4.97;;;22.80;95.40;;;;;;4960144;28;20058;-81
2023/10/13 12:56:43;;;;;;;12.93;4.85;;;22.90;95.00;;;;;;4946463;28;20050;-83
2023/10/13 12:59:13;;;;;;;12.48;5.10;;;22.90;95.40;;;;;;4973800;28;20141;-82
2023/10/13 13:01:44;;;;;;;14.57;4.53;;;23.00;95.40;;;;;;4964473;28;20043;-83
2023/10/13 13:04:18;;;;;;;15.10;5.55;;;23.00;93.30;;;;;;4953161;28;20054;-82
2023/10/13 13:06:50;;;;;;;17.90;5.53;;;23.10;94.40;;;;;;4956535;28;20061;-85
2023/10/13 13:09:25;;;;;;;18.77;5.80;;;23.00;94.10;;;;;;4967673;28;20057;-82
2023/10/13 13:11:59;;;;;;;9.93;4.43;;;23.00;92.60;;;;;;4940246;28;20055;-82
2023/10/13 13:14:28;;;;;;;12.15;4.93;;;23.00;92.50;;;;;;4979982;28;20581;-83
2023/10/13 13:17:15;;;;;;;13.00;4.80;;;23.00;92.20;;;;;;4953602;28;20104;-81
2023/10/13 13:19:42;;;;;;;13.30;4.30;;;23.00;93.00;;;;;;4951179;28;20054;-82
2023/10/13 13:22:13;;;;;;;13.00;5.07;;;22.90;92.60;;;;;;4961047;28;20054;-82
2023/10/13 13:24:44;;;;;;;14.35;5.18;;;22.90;93.10;;;;;;4940092;28;20507;-83
2023/10/13 13:27:19;;;;;;;;;;;22.90;92.80;;;;;;4962085;28;20054;-83
2023/10/13 13:29:47;;;;;;;11.65;4.85;;;22.90;93.50;;;;;;4940912;28;19929;-83
2023/10/13 13:32:18;;;;;;;11.15;4.45;;;22.90;94.50;;;;;;4978244;28;22480;-83
2023/10/13 13:34:54;;;;;;;11.20;5.28;;;22.90;93.90;;;;;;4968629;28;20046;-83
2023/10/13 13:37:22;;;;;;;8.50;4.22;;;23.00;92.90;;;;;;4952969;28;22812;-83
2023/10/13 13:39:52;;;;;;;11.98;4.45;;;23.00;93.10;;;;;;4956489;28;20046;-83
2023/10/13 13:42:20;;;;;;;10.73;4.43;;;23.10;93.00;;;;;;4967704;28;20262;-83
2023/10/13 13:44:47;;;;;;;11.05;4.10;;;23.10;91.60;;;;;;4968348;28;20066;-83
2023/10/13 13:47:15;;;;;;;10.45;3.60;;;23.20;91.40;;;;;;4948734;28;20062;-81
2023/10/13 13:49:54;;;;;;;14.00;3.85;;;23.10;90.20;;;;;;4973139;28;20065;-81
2023/10/13 13:52:33;;;;;;;9.60;3.20;;;23.20;88.70;;;;;;4974432;28;20050;-83
2023/10/13 13:55:05;;;;;;;10.90;4.05;;;23.20;88.50;;;;;;4977564;28;22511;-85
2023/10/13 13:57:32;;;;;;;11.25;4.53;;;23.20;87.80;;;;;;4967002;28;20058;-83
2023/10/13 13:59:59;;;;;;;11.60;3.97;;;23.10;89.30;;;;;;4969109;28;21046;-83
2023/10/13 14:02:28;;;;;;;7.95;3.35;;;23.10;87.80;;;;;;4976896;28;20061;-83
2023/10/13 14:04:56;;;;;;;14.15;3.72;;;23.20;86.80;;;;;;4956344;28;20062;-83
2023/10/13 14:07:24;;;;;;;11.85;3.83;;;23.20;87.50;;;;;;4967432;28;20684;-82
2023/10/13 14:09:51;;;;;;;8.82;2.72;;;23.10;88.80;;;;;;4988965;28;20057;-83
2023/10/13 14:15:19;;;;;;;14.52;3.53;;;23.20;87.40;;;;;;4973228;28;20058;-84
2023/10/13 14:17:49;;;;;;;7.60;3.67;;;23.10;87.10;;;;;;4975674;28;20046;-83
2023/10/13 14:20:19;;;;;;;13.18;3.28;;;23.00;88.20;;;;;;4974953;28;20062;-87
2023/10/13 14:22:49;;;;;;;7.35;3.03;;;23.00;86.30;;;;;;4983612;28;20102;-83
2023/10/13 14:25:16;;;;;;;10.95;3.20;;;23.10;86.70;;;;;;4969119;28;20076;-83
2023/10/13 14:27:46;;;;;;;9.65;3.15;;;22.90;88.70;;;;;;4991715;28;20057;-83
2023/10/13 14:30:19;;;;;;;11.55;3.10;;;23.00;86.30;;;;;;4970773;28;20526;-83
2023/10/13 14:32:47;;;;;;;8.63;3.03;;;23.00;86.50;;;;;;4974580;28;20478;-83
2023/10/13 14:35:14;;;;;;;8.05;2.92;;;22.80;87.20;;;;;;4975032;28;20042;-82
2023/10/13 14:37:42;;;;;;;7.80;2.85;;;22.80;87.70;;;;;;4954972;28;20949;-84
2023/10/13 14:40:14;;;;;;;12.35;4.35;;;22.70;86.90;;;;;;4966398;28;20054;-83
2023/10/13 14:42:42;;;;;;;7.97;3.17;;;22.60;88.60;;;;;;4956094;28;20051;-83
2023/10/13 14:45:12;;;;;;;13.15;3.30;;;22.50;88.60;;;;;;4955868;28;20057;-83
2023/10/13 14:47:44;;;;;;;14.38;3.13;;;22.40;89.40;;;;;;4976781;28;20046;-83
2023/10/13 14:50:21;;;;;;;6.72;2.22;;;22.40;89.90;;;;;;4974147;28;20086;-83
2023/10/13 14:52:50;;;;;;;11.00;3.70;;;22.40;89.90;;;;;;4971889;28;20054;-83
2023/10/13 14:55:21;;;;;;;8.95;3.45;;;22.30;90.60;;;;;;4954379;28;20057;-83
2023/10/13 14:57:50;;;;;;;9.93;2.47;;;22.20;90.70;;;;;;4996718;28;20767;-82
2023/10/13 15:00:24;;;;;;;15.57;3.45;;;22.30;89.90;;;;;;4976256;28;20487;-84
2023/10/13 15:02:54;;;;;;;8.30;2.90;;;22.40;88.10;;;;;;4988299;28;20137;-83
2023/10/13 15:05:22;;;;;;;9.57;3.03;;;22.30;89.00;;;;;;4972068;28;20593;-83
2023/10/13 15:07:51;;;;;;;6.90;2.42;;;22.20;89.80;;;;;;4974887;28;20193;-82
2023/10/13 15:10:18;;;;;;;9.60;3.00;;;22.20;88.50;;;;;;4974486;28;20050;-82
2023/10/13 15:12:46;;;;;;;9.98;3.67;;;22.20;90.00;;;;;;4984096;28;20054;-83
2023/10/13 15:15:13;;;;;;;11.57;2.90;;;22.10;90.20;;;;;;4965211;28;20059;-83
2023/10/13 15:17:40;;;;;;;9.05;2.92;;;22.00;90.50;;;;;;4948220;28;20062;-82
2023/10/13 15:20:15;;;;;;;12.15;3.30;;;21.90;90.90;;;;;;4976811;28;20062;-83
2023/10/13 15:22:49;;;;;;;12.30;2.90;;;21.90;91.00;;;;;;4961450;28;20073;-82
2023/10/13 15:25:20;;;;;;;11.75;3.38;;;21.80;91.00;;;;;;4949328;28;20128;-82
2023/10/13 15:27:55;;;;;;;17.33;3.90;;;21.70;91.60;;;;;;4960600;28;20054;-82
2023/10/13 15:30:30;;;;;;;15.65;4.00;;;21.70;91.60;;;;;;4948321;28;20066;-83
2023/10/13 15:32:58;;;;;;;9.25;2.85;;;21.60;92.10;;;;;;4941318;28;20060;-83
2023/10/13 15:35:28;;;;;;;13.55;3.47;;;21.50;92.40;;;;;;4932779;28;20112;-82
2023/10/13 15:37:56;;;;;;;8.90;2.97;;;21.40;93.10;;;;;;4974794;28;20046;-83
2023/10/13 15:40:27;;;;;;;15.13;3.47;;;21.30;92.90;;;;;;4942611;28;20050;-83
2023/10/13 15:42:59;;;;;;;11.27;3.17;;;21.20;93.40;;;;;;4962870;28;20078;-83
2023/10/13 15:45:38;;;;;;;11.48;3.47;;;21.10;93.80;;;;;;4930047;28;20197;-84
2023/10/13 15:48:06;;;;;;;14.40;4.82;;;21.00;94.30;;;;;;4945160;28;20047;-82
2023/10/13 15:50:41;;;;;;;8.63;3.92;;;20.90;95.10;;;;;;4977930;28;20047;-83
2023/10/13 15:53:15;;;;;;;8.70;3.58;;;20.80;95.70;;;;;;4948980;28;20094;-83
2023/10/13 15:55:45;;;;;;;10.50;3.80;;;20.70;96.30;;;;;;4964028;28;22416;-83
2023/10/13 15:58:13;;;;;;;13.43;4.00;;;20.60;97.20;;;;;;4952447;28;20188;-82
2023/10/13 16:00:41;;;;;;;7.85;3.30;;;20.50;98.00;;;;;;4958790;28;20058;-83
2023/10/13 16:03:11;;;;;;;14.30;3.60;;;20.40;99.20;;;;;;4949185;28;20141;-83
2023/10/13 16:05:42;;;;;;;10.70;4.88;;;20.30;99.90;;;;;;4978362;28;22638;-83
2023/10/13 16:08:11;;;;;;;11.80;3.65;;;20.20;99.90;;;;;;4977672;28;20043;-82
2023/10/13 16:10:40;;;;;;;13.93;4.45;;;20.10;99.90;;;;;;4948262;28;20058;-82
2023/10/13 16:13:14;;;;;;;9.77;4.13;;;20.00;99.90;;;;;;4979935;28;20581;-82
2023/10/13 16:15:43;;;;;;;11.88;3.50;;;19.90;99.90;;;;;;4965432;28;20062;-81
2023/10/13 16:18:11;;;;;;;10.35;3.63;;;19.90;99.90;;;;;;4946826;28;20042;-81
2023/10/13 16:20:39;;;;;;;8.20;4.00;;;19.80;99.90;;;;;;4962574;28;20058;-81
2023/10/13 16:23:08;;;;;;;11.55;3.35;;;19.70;99.90;;;;;;4950247;28;20061;-82
2023/10/13 16:25:36;;;;;;;17.95;4.03;;;19.70;99.90;;;;;;4929473;28;20058;-82
2023/10/13 16:28:04;;;;;;;10.13;4.07;;;19.60;99.90;;;;;;4938122;28;20133;-80
2023/10/13 16:30:31;;;;;;;11.45;4.15;;;19.50;99.90;;;;;;4954921;28;20054;-80
2023/10/13 16:32:58;;;;;;;11.25;4.15;;;19.40;99.90;;;;;;4940923;28;20046;-82